createdAt,value
2017-10-30T09:43:04.361Z,93.36
2017-10-30T09:44:18.018Z,90.21
2017-10-30T09:45:32.097Z,90.36
2017-10-30T09:46:45.668Z,90.93
2017-10-30T09:47:59.972Z,90.93
2017-10-30T09:49:14.602Z,90.45
2017-10-30T09:50:28.728Z,90.93
2017-10-30T09:51:42.409Z,90.45
2017-10-30T09:52:56.252Z,90.5
2017-10-30T09:54:10.075Z,90.45
2017-10-30T09:55:33.325Z,90.36
2017-10-30T09:56:47.279Z,90.17
2017-10-30T09:58:01.772Z,89.93
2017-10-30T09:59:15.392Z,89.17
2017-10-30T10:00:56.804Z,90.12
2017-10-30T10:02:52.893Z,90.64
2017-10-30T10:04:07.624Z,89.98
2017-10-30T10:05:21.313Z,90.45
2017-10-30T10:06:34.995Z,90.64
2017-10-30T10:07:48.689Z,90.45
2017-10-30T10:09:02.593Z,90.69
2017-10-30T10:10:16.549Z,89.74
2017-10-30T10:11:43.335Z,89.74
2017-10-30T10:12:57.182Z,89.36
2017-10-30T10:14:10.913Z,89.17
2017-10-30T10:15:24.715Z,90.03
2017-10-30T10:16:51.881Z,90.5
2017-10-30T10:18:05.806Z,90.41
2017-10-30T10:19:19.569Z,90.45
2017-10-30T10:20:33.106Z,90.93
2017-10-30T10:21:56.969Z,90.74
2017-10-30T10:23:10.577Z,91.22
2017-10-30T10:24:38.220Z,91.13
2017-10-30T10:25:51.759Z,90.84
2017-10-30T10:27:05.391Z,90.55
2017-10-30T10:28:19.268Z,90.64
2017-10-30T10:29:42.089Z,90.64
2017-10-30T10:30:55.693Z,90.08
2017-10-30T10:32:09.335Z,90.26
2017-10-30T10:33:22.987Z,89.4
2017-10-30T10:34:53.934Z,89.98
2017-10-30T10:36:08.001Z,88.64
2017-10-30T10:37:21.559Z,88.59
2017-10-30T10:38:35.575Z,88.59
2017-10-30T10:39:49.286Z,88.4
2017-10-30T10:41:43.206Z,87.54
2017-10-30T10:42:56.967Z,87.26
2017-10-30T10:44:10.933Z,87.74
2017-10-30T10:46:12.997Z,87.74
2017-10-30T10:47:26.698Z,87.83
2017-10-30T10:48:40.269Z,87.93
2017-10-30T10:50:28.145Z,87.54
2017-10-30T10:51:50.976Z,87.07
2017-10-30T10:53:04.728Z,86.78
2017-10-30T10:54:48.596Z,87.16
2017-10-30T10:56:02.252Z,87.83
2017-10-30T10:57:15.838Z,88.17
2017-10-30T10:58:29.865Z,89.03
2017-10-30T10:59:43.545Z,89.12
2017-10-30T11:00:57.477Z,89.89
2017-10-30T11:02:11.336Z,89.98
2017-10-30T11:03:25.098Z,90.17
2017-10-30T11:04:38.611Z,89.79
2017-10-30T11:05:52.305Z,89.79
2017-10-30T11:07:06.554Z,90.08
2017-10-30T11:08:20.842Z,90.36
2017-10-30T11:09:34.368Z,89.12
2017-10-30T11:11:05.726Z,89.22
2017-10-30T11:12:54.036Z,87.79
2017-10-30T11:14:08.099Z,86.83
2017-10-30T11:15:21.641Z,87.69
2017-10-30T11:16:48.471Z,86.93
2017-10-30T11:18:02.447Z,86.36
2017-10-30T11:19:36.646Z,85.45
2017-10-30T11:20:50.272Z,84.78
2017-10-30T11:22:04.208Z,83.64
2017-10-30T11:23:17.996Z,83.69
2017-10-30T11:24:31.539Z,83.59
2017-10-30T11:25:45.189Z,84.2
2017-10-30T11:26:59.024Z,83.92
2017-10-30T11:28:12.708Z,83.35
2017-10-30T11:29:26.366Z,82.87
2017-10-30T11:30:40.067Z,82.68
2017-10-30T11:31:53.984Z,82.78
2017-10-30T11:33:08.107Z,82.97
2017-10-30T11:34:22.074Z,83.92
2017-10-30T11:35:36.213Z,84.4
2017-10-30T11:36:49.767Z,84.3
2017-10-30T11:38:03.863Z,83.25
2017-10-30T11:39:17.829Z,83.31
2017-10-30T11:40:31.704Z,83.31
2017-10-30T11:41:45.341Z,83.12
2017-10-30T11:43:11.386Z,81.92
2017-10-30T11:44:25.369Z,81.06
2017-10-30T11:45:39.020Z,80.96
2017-10-30T11:46:52.990Z,81.73
2017-10-30T11:48:07.703Z,81.82
2017-10-30T11:49:21.883Z,81.15
2017-10-30T11:50:35.824Z,80.15
2017-10-30T11:51:49.376Z,79.63
2017-10-30T11:53:03.335Z,80.01
2017-10-30T11:54:17.016Z,79.82
2017-10-30T11:55:49.703Z,80.05
2017-10-30T11:57:03.375Z,79.67
2017-10-30T11:58:17.036Z,79.19
2017-10-30T12:00:00.954Z,78.05
2017-10-30T12:01:14.753Z,77.76
2017-10-30T12:02:28.447Z,77.95
2017-10-30T12:04:00.576Z,77.28
2017-10-30T12:05:14.259Z,77.38
2017-10-30T12:06:28.014Z,76.84
2017-10-30T12:08:07.468Z,76.46
2017-10-30T12:09:21.808Z,76.37
2017-10-30T12:10:35.351Z,75.42
2017-10-30T12:12:09.384Z,76.52
2017-10-30T12:13:23.385Z,77.47
2017-10-30T12:14:37.232Z,77.67
2017-10-30T12:15:51.780Z,77.86
2017-10-30T12:17:05.433Z,77.95
2017-10-30T12:18:19.092Z,77.82
2017-10-30T12:19:33.252Z,78.05
2017-10-30T12:20:47.258Z,77.57
2017-10-30T12:22:00.900Z,78.01
2017-10-30T12:23:14.726Z,78.01
2017-10-30T12:24:28.311Z,78.67
2017-10-30T12:26:02.381Z,79.53
2017-10-30T12:27:16.244Z,78.77
2017-10-30T12:28:29.845Z,78.58
2017-10-30T12:29:43.512Z,78.3
2017-10-30T12:30:57.080Z,77.72
2017-10-30T12:32:10.915Z,77.25
2017-10-30T12:33:24.845Z,77.91
2017-10-30T12:34:38.633Z,77.91
2017-10-30T12:36:11.713Z,77.15
2017-10-30T12:37:25.840Z,77
2017-10-30T12:38:40.189Z,77.09
2017-10-30T12:39:53.915Z,77.28
2017-10-30T12:41:07.685Z,77.67
2017-10-30T12:42:21.721Z,78.14
2017-10-30T12:43:35.885Z,77.42
2017-10-30T12:44:49.936Z,77.23
2017-10-30T12:46:03.443Z,76.65
2017-10-30T12:47:30.747Z,76.18
2017-10-30T12:48:44.254Z,75.51
2017-10-30T12:49:58.212Z,76.08
2017-10-30T12:51:11.787Z,76.08
2017-10-30T12:52:25.595Z,76.84
2017-10-30T12:53:39.671Z,76.65
2017-10-30T12:55:06.432Z,77.51
2017-10-30T12:56:20.050Z,77.67
2017-10-30T12:57:34.232Z,77.95
2017-10-30T12:58:48.100Z,77
2017-10-30T13:00:12.985Z,77
2017-10-30T13:01:26.530Z,77.76
2017-10-30T13:02:50.114Z,77.95
2017-10-30T13:04:03.686Z,78.33
2017-10-30T13:05:17.434Z,78.52
2017-10-30T13:06:31.312Z,78.81
2017-10-30T13:08:00.795Z,78.52
2017-10-30T13:09:14.357Z,78.33
2017-10-30T13:10:37.804Z,78.66
2017-10-30T13:11:51.311Z,78.94
2017-10-30T13:13:05.040Z,79.33
2017-10-30T13:14:18.900Z,79.99
2017-10-30T13:15:32.545Z,79.61
2017-10-30T13:16:47.090Z,79.99
2017-10-30T13:18:41.036Z,79.99
2017-10-30T13:20:12.509Z,80.28
2017-10-30T13:21:26.274Z,79.52
2017-10-30T13:22:39.875Z,77.23
2017-10-30T13:23:53.880Z,76.18
2017-10-30T13:25:07.675Z,75.89
2017-10-30T13:26:21.417Z,76.46
2017-10-30T13:27:35.233Z,76.65
2017-10-30T13:28:48.909Z,76.75
2017-10-30T13:30:02.566Z,77.32
2017-10-30T13:31:37.486Z,78.33
2017-10-30T13:34:11.032Z,79.48
2017-10-30T13:35:34.807Z,79.67
2017-10-30T13:36:48.397Z,79.57
2017-10-30T13:38:16.367Z,79.96
2017-10-30T13:39:29.921Z,80.33
2017-10-30T13:40:43.702Z,79.82
2017-10-30T13:41:57.263Z,80.2
2017-10-30T13:43:10.910Z,80.11
2017-10-30T13:44:24.606Z,80.39
2017-10-30T13:45:48.752Z,79.96
2017-10-30T13:47:02.277Z,80.2
2017-10-30T13:48:33.742Z,80.96
2017-10-30T13:49:47.595Z,81.35
2017-10-30T13:54:33.013Z,80.58
2017-10-30T13:55:46.563Z,80.68
2017-10-30T13:57:00.208Z,80.72
2017-10-30T13:58:13.729Z,80.24
2017-10-30T13:59:27.395Z,79.86
2017-10-30T14:00:42.041Z,79.44
2017-10-30T14:01:56.769Z,79.82
2017-10-30T14:03:11.367Z,79.63
2017-10-30T14:04:25.712Z,79.35
2017-10-30T14:05:39.310Z,79.82
2017-10-30T14:06:53.553Z,80.3
2017-10-30T14:08:07.480Z,80.01
2017-10-30T14:09:21.505Z,80.2
2017-10-30T14:10:35.249Z,79.63
2017-10-30T14:11:58.086Z,79.96
2017-10-30T14:13:13.543Z,80.2
2017-10-30T14:14:27.905Z,80.68
2017-10-30T14:15:42.033Z,80.72
2017-10-30T14:16:56.101Z,80.43
2017-10-30T14:18:10.367Z,80.24
2017-10-30T14:19:24.446Z,80.62
2017-10-30T14:20:38.488Z,80.43
2017-10-30T14:21:52.288Z,80.53
2017-10-30T14:23:06.114Z,79.96
2017-10-30T14:24:20.021Z,80.72
2017-10-30T14:25:34.081Z,80.15
2017-10-30T14:26:48.507Z,80.05
2017-10-30T14:28:02.581Z,80.58
2017-10-30T14:29:16.946Z,80.2
2017-10-30T14:30:30.593Z,80.96
2017-10-30T14:32:04.416Z,80.68
2017-10-30T14:33:19.711Z,80.58
2017-10-30T14:34:33.944Z,80.68
2017-10-30T14:35:48.487Z,80.87
2017-10-30T14:37:02.776Z,80.58
2017-10-30T14:38:17.313Z,80.49
2017-10-30T14:39:32.290Z,81.06
2017-10-30T14:40:46.535Z,81.06
2017-10-30T14:42:00.033Z,81.25
2017-10-30T14:43:14.717Z,80.87
2017-10-30T14:44:28.694Z,81.25
2017-10-30T14:45:42.360Z,81.73
2017-10-30T14:46:55.980Z,81.63
2017-10-30T14:48:20.307Z,81.97
2017-10-30T14:49:35.095Z,81.78
2017-10-30T14:50:48.844Z,81.97
2017-10-30T14:52:02.393Z,81.68
2017-10-30T14:53:16.092Z,82.87
2017-10-30T14:54:30.300Z,83.35
2017-10-30T14:55:44.631Z,82.83
2017-10-30T14:56:59.060Z,82.49
2017-10-30T14:58:13.512Z,83.4
2017-10-30T14:59:27.101Z,82.83
2017-10-30T15:00:41.054Z,83.5
2017-10-30T15:01:54.773Z,83.59
2017-10-30T15:03:23.583Z,83.4
2017-10-30T15:04:38.262Z,83.06
2017-10-30T15:05:53.124Z,83.35
2017-10-30T15:07:07.618Z,83.44
2017-10-30T15:08:33.153Z,83.35
2017-10-30T15:09:47.198Z,83.44
2017-10-30T15:11:01.174Z,83.31
2017-10-30T15:12:16.172Z,83.44
2017-10-30T15:13:30.505Z,83.21
2017-10-30T15:14:44.379Z,84.16
2017-10-30T15:15:59.286Z,83.69
2017-10-30T15:17:13.088Z,84.07
2017-10-30T15:18:28.066Z,84.36
2017-10-30T15:19:41.824Z,84.26
2017-10-30T15:21:08.204Z,83.97
2017-10-30T15:22:21.756Z,84.55
2017-10-30T15:23:35.928Z,84.64
2017-10-30T15:24:50.229Z,84.74
2017-10-30T15:26:22.365Z,85.31
2017-10-30T15:27:38.470Z,85.31
2017-10-30T15:28:52.346Z,85.21
2017-10-30T15:30:39.826Z,85.88
2017-10-30T15:32:03.705Z,86.36
2017-10-30T15:33:25.904Z,86.74
2017-10-30T15:35:03.534Z,86.45
2017-10-30T15:36:26.167Z,87.12
2017-10-30T15:37:49.173Z,87.4
2017-10-30T15:39:25.611Z,87.69
2017-10-30T15:40:47.258Z,87.98
2017-10-30T15:42:11.572Z,88.17
2017-10-30T15:43:30.236Z,88.36
2017-10-30T15:44:45.011Z,88.22
2017-10-30T15:46:00.967Z,88.36
2017-10-30T15:47:15.010Z,88.51
2017-10-30T15:48:29.010Z,88.79
2017-10-30T15:49:43.632Z,88.64
2017-10-30T15:50:57.525Z,88.6
2017-10-30T15:52:11.487Z,88.79
2017-10-30T15:53:26.711Z,88.98
2017-10-30T15:54:40.841Z,89.12
2017-10-30T15:56:10.301Z,89.17
2017-10-30T15:57:24.033Z,89.36
2017-10-30T15:58:38.396Z,89.84
2017-10-30T15:59:52.480Z,89.84
2017-10-30T16:01:15.853Z,89.26
2017-10-30T16:02:29.439Z,89.55
2017-10-30T16:03:56.538Z,89.17
2017-10-30T16:05:10.725Z,89.94
2017-10-30T16:06:25.689Z,89.94
2017-10-30T16:07:39.322Z,90.12
2017-10-30T16:08:53.415Z,90.22
2017-10-30T16:10:08.615Z,90.41
2017-10-30T16:11:23.647Z,89.84
2017-10-30T16:12:38.686Z,90.31
2017-10-30T16:13:52.835Z,91.08
2017-10-30T16:15:06.730Z,90.98
2017-10-30T16:16:21.117Z,90.6
2017-10-30T16:17:36.195Z,90.5
2017-10-30T16:18:50.558Z,90.79
2017-10-30T16:20:04.483Z,90.98
2017-10-30T16:21:20.091Z,90.79
2017-10-30T16:22:34.266Z,90.89
2017-10-30T16:23:48.312Z,91.36
2017-10-30T16:25:01.902Z,91.27
2017-10-30T16:26:15.969Z,90.89
2017-10-30T16:27:30.043Z,91.17
2017-10-30T16:28:44.006Z,90.89
2017-10-30T16:29:57.977Z,90.98
2017-10-30T16:31:12.058Z,90.98
2017-10-30T16:32:25.860Z,91.08
2017-10-30T16:33:40.546Z,91.36
2017-10-30T16:34:55.103Z,92.03
2017-10-30T16:36:09.145Z,92.22
2017-10-30T16:37:23.255Z,91.84
2017-10-30T16:38:37.371Z,91.84
2017-10-30T16:39:50.944Z,91.65
2017-10-30T16:41:05.226Z,92.79
2017-10-30T16:42:19.121Z,92.22
2017-10-30T16:43:32.834Z,92.5
2017-10-30T16:44:47.148Z,92.13
2017-10-30T16:46:01.568Z,92.32
2017-10-30T16:47:15.519Z,92.6
2017-10-30T16:48:30.192Z,92.13
2017-10-30T16:49:43.915Z,92.5
2017-10-30T16:50:57.814Z,93.37
2017-10-30T16:52:11.357Z,92.79
2017-10-30T16:53:25.383Z,92.79
2017-10-30T16:55:05.601Z,93.08
2017-10-30T16:56:20.355Z,93.27
2017-10-30T16:57:33.884Z,93.46
2017-10-30T16:58:47.846Z,93.55
2017-10-30T17:01:34.765Z,93.65
2017-10-30T17:02:48.713Z,93.08
2017-10-30T17:04:02.696Z,93.27
2017-10-30T17:05:16.917Z,93.08
2017-10-30T17:06:31.558Z,92.98
2017-10-30T17:07:46.226Z,92.69
2017-10-30T17:09:00.194Z,93.17
2017-10-30T17:10:13.736Z,93.27
2017-10-30T17:11:27.710Z,93.46
2017-10-30T17:12:41.870Z,93.65
2017-10-30T17:13:55.877Z,93.65
2017-10-30T17:15:10.428Z,93.08
2017-10-30T17:16:24.613Z,92.98
2017-10-30T17:17:39.012Z,93.08
2017-10-30T17:18:54.989Z,92.69
2017-10-30T17:20:10.244Z,92.98
2017-10-30T17:21:24.800Z,92.89
2017-10-30T17:22:39.913Z,93.08
2017-10-30T17:23:53.998Z,92.41
2017-10-30T17:25:08.625Z,92.69
2017-10-30T17:26:22.545Z,92.13
2017-10-30T17:27:36.679Z,92.41
2017-10-30T17:28:51.293Z,92.69
2017-10-30T17:30:05.603Z,92.69
2017-10-30T17:31:19.304Z,92.69
2017-10-30T17:32:33.103Z,92.32
2017-10-30T17:33:47.354Z,92.6
2017-10-30T17:35:01.161Z,92.79
2017-10-30T17:36:15.533Z,92.79
2017-10-30T17:37:29.539Z,92.69
2017-10-30T17:38:43.965Z,93.08
2017-10-30T17:39:57.714Z,92.98
2017-10-30T17:41:12.023Z,92.41
2017-10-30T17:42:25.980Z,91.94
2017-10-30T17:43:40.100Z,92.89
2017-10-30T17:44:55.194Z,93.55
2017-10-30T17:46:08.832Z,93.65
2017-10-30T17:47:22.409Z,93.46
2017-10-30T17:48:36.333Z,93.74
2017-10-30T17:49:52.755Z,93.46
2017-10-30T17:51:06.467Z,93.27
2017-10-30T17:52:20.174Z,93.55
2017-10-30T17:53:39.798Z,93.84
2017-10-30T17:54:53.615Z,93.55
2017-10-30T17:56:07.315Z,93.74
2017-10-30T17:57:20.879Z,93.65
2017-10-30T17:58:35.319Z,94.13
2017-10-30T17:59:49.221Z,94.22
2017-10-30T18:01:03.306Z,93.55
2017-10-30T18:02:16.861Z,94.41
2017-10-30T18:04:27.196Z,94.22
2017-10-30T18:05:41.425Z,93.74
2017-10-30T18:06:55.812Z,94.22
2017-10-30T18:08:10.479Z,94.13
2017-10-30T18:09:24.524Z,94.6
2017-10-30T18:10:38.695Z,94.22
2017-10-30T18:11:52.935Z,94.13
2017-10-30T18:13:06.772Z,94.6
2017-10-30T18:14:21.599Z,95.46
2017-10-30T18:15:35.380Z,96.22
2017-10-30T18:16:49.379Z,95.46
2017-10-30T18:18:04.110Z,94.79
2017-10-30T18:19:18.711Z,94.79
2017-10-30T18:20:32.833Z,94.32
2017-10-30T18:21:46.844Z,94.7
2017-10-30T18:23:01.721Z,95.08
2017-10-30T18:24:15.615Z,94.79
2017-10-30T18:25:29.342Z,94.51
2017-10-30T18:26:42.946Z,95.08
2017-10-30T18:27:57.427Z,94.51
2017-10-30T18:35:25.564Z,94.32
2017-10-30T18:37:27.109Z,94.22
2017-10-30T18:39:43.571Z,94.41
2017-10-30T18:44:21.759Z,93.46
2017-10-30T18:45:39.694Z,93.55
2017-10-30T18:46:58.587Z,94.41
2017-10-30T18:48:12.937Z,94.22
2017-10-30T18:49:26.958Z,94.22
2017-10-30T18:50:42.250Z,94.32
2017-10-30T18:51:56.036Z,94.32
2017-10-30T18:53:09.862Z,94.41
2017-10-30T18:54:23.685Z,94.03
2017-10-30T18:55:37.123Z,94.32
2017-10-30T18:56:50.471Z,94.98
2017-10-30T18:58:04.655Z,94.79
2017-10-30T18:59:18.455Z,94.46
2017-10-30T19:00:44.775Z,94.93
2017-10-30T19:01:58.109Z,94.6
2017-10-30T19:03:12.392Z,94.32
2017-10-30T19:04:26.983Z,94.13
2017-10-30T19:05:40.858Z,94.13
2017-10-30T19:06:54.140Z,93.93
2017-10-30T19:09:06.117Z,94.27
2017-10-30T19:11:10.689Z,94.56
2017-10-30T19:12:26.402Z,94.74
2017-10-30T19:13:40.131Z,94.65
2017-10-30T19:14:53.571Z,94.65
2017-10-30T19:16:07.414Z,94.84
2017-10-30T19:17:21.107Z,94.65
2017-10-30T19:18:35.308Z,95.51
2017-10-30T19:19:49.388Z,95.41
2017-10-30T19:21:03.408Z,95.03
2017-10-30T19:22:17.764Z,94.93
2017-10-30T19:23:31.669Z,95.32
2017-10-30T19:24:48.653Z,95.6
2017-10-30T19:26:03.086Z,95.6
2017-10-30T19:28:19.945Z,96.27
2017-10-30T19:29:36.429Z,96.7
2017-10-30T19:30:53.987Z,97.08
2017-10-30T19:32:10.589Z,96.89
2017-10-30T19:33:25.035Z,97.08
2017-10-30T19:34:40.038Z,96.98
2017-10-30T19:36:38.945Z,97.46
2017-10-30T19:38:11.431Z,98.88
2017-10-30T19:39:29.925Z,99.93
2017-10-30T19:40:48.641Z,99.99
2017-10-30T19:42:03.551Z,99.36
2017-10-30T19:43:17.272Z,99.74
2017-10-30T19:44:30.787Z,98.98
2017-10-30T19:45:45.209Z,99.36
2017-10-30T19:47:38.749Z,98.79
2017-10-30T19:48:53.381Z,99.08
2017-10-30T19:50:06.949Z,98.98
2017-10-30T19:51:21.066Z,99.08
2017-10-30T19:52:34.565Z,99.17
2017-10-30T19:53:48.705Z,99.93
2017-10-30T19:55:02.474Z,99.99
2017-10-30T19:56:16.404Z,99.65
2017-10-30T19:57:31.175Z,99.65
2017-10-30T19:58:46.066Z,99.84
2017-10-30T20:00:01.532Z,99.93
2017-10-30T20:01:16.217Z,99.99
2017-10-30T20:02:29.843Z,99.99
2017-10-30T20:03:44.372Z,99.99
2017-10-30T20:04:57.772Z,99.99
2017-10-30T20:06:11.587Z,99.99
2017-10-30T20:07:26.012Z,99.99
2017-10-30T20:08:41.407Z,99.99
2017-10-30T20:10:11.584Z,99.99
2017-10-30T20:11:25.937Z,99.99
2017-10-30T20:12:40.439Z,99.99
2017-10-30T20:13:55.220Z,99.99
2017-10-30T20:15:08.674Z,99.99
2017-10-30T20:16:22.751Z,99.99
2017-10-30T20:17:37.186Z,99.99
2017-10-30T20:18:51.516Z,99.99
2017-10-30T20:20:05.445Z,99.99
2017-10-30T20:21:19.227Z,99.99
2017-10-30T20:22:32.843Z,99.99
2017-10-30T20:23:46.488Z,99.99
2017-10-30T20:25:00.436Z,99.99
2017-10-30T20:26:14.169Z,99.99
2017-10-30T20:27:27.879Z,99.99
2017-10-30T20:28:41.911Z,99.99
2017-10-30T20:29:56.137Z,99.99
2017-10-30T20:31:10.564Z,99.99
2017-10-30T20:32:24.431Z,99.99
2017-10-30T20:33:38.379Z,99.99
2017-10-30T20:34:52.124Z,99.99
2017-10-30T20:36:06.182Z,99.99
2017-10-30T20:37:19.559Z,99.99
2017-10-30T20:38:34.394Z,99.99
2017-10-30T20:39:49.380Z,99.99
2017-10-30T20:41:04.509Z,99.99
2017-10-30T20:42:23.537Z,99.99
2017-10-30T20:43:40.224Z,99.99
2017-10-30T20:44:54.435Z,99.99
2017-10-30T20:46:12.593Z,99.99
2017-10-30T20:47:28.380Z,99.99
2017-10-30T20:48:42.293Z,99.99
2017-10-30T20:49:56.388Z,99.99
2017-10-30T20:51:12.029Z,99.99
2017-10-30T20:52:28.715Z,99.99
2017-10-30T20:54:03.519Z,99.99
2017-10-30T20:55:20.789Z,99.99
2017-10-30T20:56:39.274Z,99.99
2017-10-30T20:57:53.319Z,99.99
2017-10-30T20:59:15.062Z,99.99
2017-10-30T21:00:29.414Z,99.99
2017-10-30T21:01:43.550Z,99.99
2017-10-30T21:02:57.962Z,99.99
2017-10-30T21:04:11.765Z,99.99
2017-10-30T21:05:26.329Z,99.99
2017-10-30T21:06:40.233Z,99.99
2017-10-30T21:07:54.403Z,99.99
2017-10-30T21:09:08.285Z,99.99
2017-10-30T21:10:22.492Z,99.99
2017-10-30T21:11:36.562Z,99.99
2017-10-30T21:12:51.450Z,99.99
2017-10-30T21:14:20.806Z,99.99
2017-10-30T21:17:16.313Z,99.99
2017-10-30T21:19:11.363Z,99.99
2017-10-30T21:20:50.138Z,99.99
2017-10-30T21:22:04.593Z,99.99
2017-10-30T21:23:20.128Z,99.99
2017-10-30T21:24:33.896Z,99.99
2017-10-30T21:25:49.229Z,99.99
2017-10-30T21:27:03.057Z,99.99
2017-10-30T21:28:16.830Z,99.99
2017-10-30T21:29:32.673Z,99.99
2017-10-30T21:30:47.365Z,99.99
2017-10-30T21:32:03.908Z,99.99
2017-10-30T21:33:27.434Z,99.99
2017-10-30T21:34:42.287Z,99.99
2017-10-30T21:35:56.866Z,99.99
2017-10-30T21:37:12.301Z,99.99
2017-10-30T21:38:32.032Z,99.99
2017-10-30T21:39:49.129Z,99.99
2017-10-30T21:41:04.378Z,99.99
2017-10-30T21:42:18.194Z,99.99
2017-10-30T21:43:41.677Z,99.99
2017-10-30T21:45:40.284Z,99.99
2017-10-30T21:47:08.386Z,99.99
2017-10-30T21:48:27.284Z,99.99
2017-10-30T21:49:40.766Z,99.99
2017-10-30T21:50:54.980Z,99.99
2017-10-30T21:52:11.884Z,99.99
2017-10-30T21:53:25.359Z,99.99
2017-10-30T21:54:38.859Z,99.99
2017-10-30T21:55:52.266Z,99.99
2017-10-30T21:57:05.926Z,99.99
2017-10-30T21:58:20.191Z,99.99
2017-10-30T21:59:34.050Z,99.99
2017-10-30T22:00:47.415Z,99.99
2017-10-30T22:02:01.359Z,99.99
2017-10-30T22:03:15.742Z,99.99
2017-10-30T22:04:29.618Z,99.99
